BBC Skysails — V2CS4 — position and weather

sailwx.info

Track history (hours):
 
Tides and Currents Weather Stations Pressure Air Temp Water Temp Dewpoint Dewpoint Depression Visibility Wind Speed Wind Dir Waves Ship Positions

BBC Skysails

Last reported at 2017-Sep-11 04:48 UTC. Time now 2017-Sep-22 08:34 UTC.
Position N 29°28' W 094°51'.
Warning: this ship's position is 11 days out of date.

Length 132 m; draft 5.9 m.

Type: Cargo ship. MMSI: 305093000.

Date/timePositionNaut miles runAvg speedWind from/ knotsBaromVisibWave heightAir tempDewpointWater temp
2017-Sep-11 04:48N 29°28' W 094°51'412.4
2017-Sep-11 04:30N 29°32' W 094°54'612.7
2017-Sep-11 04:00N 29°37' W 094°57'611.4
2017-Sep-11 03:30N 29°42' W 095°01'4 8.8
2017-Sep-11 03:00N 29°45' W 095°04'3 6.6
2017-Sep-11 02:30N 29°44' W 095°08'4 6.6
2017-Sep-11 01:56N 29°44' W 095°12'  
2017-Sep-08 05:12N 29°43' W 095°15'0 0.0
2017-Sep-07 07:10N 29°43' W 095°15'  
2017-Sep-05 02:40N 29°43' W 095°15'0 1.1
2017-Sep-05 02:27N 29°43' W 095°15'2 3.9
2017-Sep-05 02:00N 29°44' W 095°13'3 5.6
2017-Sep-05 01:28N 29°44' W 095°09'3 6.2
2017-Sep-05 00:58N 29°45' W 095°06'3 5.5
2017-Sep-05 00:30N 29°44' W 095°03'4 7.7
2017-Sep-05 00:00N 29°42' W 094°60'612.3
2017-Sep-04 23:30N 29°36' W 094°57'612.1
2017-Sep-04 23:00N 29°31' W 094°53'  
2017-Sep-01 07:32N 29°16' W 094°29'0 0.0
2017-Sep-01 07:26N 29°16' W 094°29'0 0.0
2017-Sep-01 06:56N 29°16' W 094°29'0 0.0
2017-Sep-01 05:14N 29°16' W 094°29'0 0.1
2017-Sep-01 04:59N 29°16' W 094°29'  
Track history (hours):
 
Tides and Currents Weather Stations Pressure Air Temp Water Temp Dewpoint Dewpoint Depression Visibility Wind Speed Wind Dir Waves Ship Positions

BBC Skysails

Last reported at 2017-Sep-11 04:48 UTC. Time now 2017-Sep-22 08:34 UTC.
Position N 29°28' W 094°51'.
Warning: this ship's position is 11 days out of date.

Length 132 m; draft 5.9 m.

Type: Cargo ship. MMSI: 305093000.

Date/timePositionNaut miles runAvg speedWind from/ knotsBaromVisibWave heightAir tempDewpointWater temp
2017-Sep-11 04:48N 29°28' W 094°51'412.4
2017-Sep-11 04:30N 29°32' W 094°54'612.7
2017-Sep-11 04:00N 29°37' W 094°57'611.4
2017-Sep-11 03:30N 29°42' W 095°01'4 8.8
2017-Sep-11 03:00N 29°45' W 095°04'3 6.6
2017-Sep-11 02:30N 29°44' W 095°08'4 6.6
2017-Sep-11 01:56N 29°44' W 095°12'  
2017-Sep-08 05:12N 29°43' W 095°15'0 0.0
2017-Sep-07 07:10N 29°43' W 095°15'  
2017-Sep-05 02:40N 29°43' W 095°15'0 1.1
2017-Sep-05 02:27N 29°43' W 095°15'2 3.9
2017-Sep-05 02:00N 29°44' W 095°13'3 5.6
2017-Sep-05 01:28N 29°44' W 095°09'3 6.2
2017-Sep-05 00:58N 29°45' W 095°06'3 5.5
2017-Sep-05 00:30N 29°44' W 095°03'4 7.7
2017-Sep-05 00:00N 29°42' W 094°60'612.3
2017-Sep-04 23:30N 29°36' W 094°57'612.1
2017-Sep-04 23:00N 29°31' W 094°53'  
2017-Sep-01 07:32N 29°16' W 094°29'0 0.0
2017-Sep-01 07:26N 29°16' W 094°29'0 0.0
2017-Sep-01 06:56N 29°16' W 094°29'0 0.0
2017-Sep-01 05:14N 29°16' W 094°29'0 0.1
2017-Sep-01 04:59N 29°16' W 094°29'  

Dump ship's entire track history